createdAt,value
2022-09-24T00:00:07.374Z,99587.75
2022-09-24T00:01:17.437Z,99620.50
2022-09-24T00:02:20.141Z,99541.69
2022-09-24T00:03:25.064Z,99568.19
2022-09-24T00:04:31.403Z,99571.84
2022-09-24T00:05:40.018Z,99558.63
2022-09-24T00:06:44.616Z,99570.34
2022-09-24T00:07:46.325Z,99563.53
2022-09-24T00:08:50.584Z,99578.97
2022-09-24T00:09:52.142Z,99587.34
2022-09-24T00:10:54.660Z,99536.09
2022-09-24T00:11:59.627Z,99564.78
2022-09-24T00:13:02.564Z,99530.19
2022-09-24T00:14:07.145Z,99600.53
2022-09-24T00:15:10.494Z,99542.56
2022-09-24T00:16:14.737Z,99626.25
2022-09-24T00:17:16.688Z,99560.69
2022-09-24T00:18:20.453Z,99586.59
2022-09-24T00:19:27.892Z,99578.47
2022-09-24T00:20:33.111Z,99584.22
2022-09-24T00:21:42.447Z,99577.94
2022-09-24T00:22:47.802Z,99535.38
2022-09-24T00:23:52.749Z,99578.81
2022-09-24T00:25:13.312Z,99589.47
2022-09-24T00:26:33.488Z,99550.50
2022-09-24T00:27:35.162Z,99555.25
2022-09-24T00:28:36.917Z,99514.38
2022-09-24T00:29:38.458Z,99548.69
2022-09-24T00:30:42.933Z,99578.66
2022-09-24T00:31:53.713Z,99569.44
2022-09-24T00:32:58.380Z,99572.53
2022-09-24T00:34:01.103Z,99531.53
2022-09-24T00:35:03.582Z,99467.66
2022-09-24T00:36:05.834Z,99543.63
2022-09-24T00:37:07.768Z,99477.66
2022-09-24T00:38:10.275Z,99577.84
2022-09-24T00:39:11.997Z,99577.19
2022-09-24T00:40:15.768Z,99591.91
2022-09-24T00:41:22.221Z,99579.47
2022-09-24T00:42:23.912Z,99538.56
2022-09-24T00:43:36.334Z,99571.50
2022-09-24T00:44:54.612Z,99526.16
2022-09-24T00:46:07.464Z,99572.41
2022-09-24T00:47:38.900Z,99577.66
2022-09-24T00:48:45.715Z,99550.31
2022-09-24T00:49:50.205Z,99529.94
2022-09-24T00:50:52.171Z,99575.75
2022-09-24T00:51:57.630Z,99507.25
2022-09-24T00:53:11.145Z,99533.72
2022-09-24T00:54:18.889Z,99622.09
2022-09-24T00:55:24.829Z,99574.13
2022-09-24T00:56:32.409Z,99583.34
2022-09-24T00:57:35.499Z,99487.78
2022-09-24T00:58:37.304Z,99592.06
2022-09-24T00:59:40.686Z,99551.38
2022-09-24T01:00:45.727Z,99552.19
2022-09-24T01:01:49.488Z,99572.25
2022-09-24T01:03:01.604Z,99571.06
2022-09-24T01:04:10.042Z,99585.69
2022-09-24T01:05:14.506Z,99567.41
2022-09-24T01:06:16.260Z,99565.69
2022-09-24T01:07:17.787Z,99571.50
2022-09-24T01:08:21.079Z,99554.25
2022-09-24T01:09:25.996Z,99506.91
2022-09-24T01:10:51.035Z,99546.47
2022-09-24T01:12:07.520Z,99545.59
2022-09-24T01:13:35.040Z,99533.50
2022-09-24T01:15:19.285Z,99553.72
2022-09-24T01:16:42.667Z,99533.81
2022-09-24T01:18:04.260Z,99481.97
2022-09-24T01:19:45.888Z,99498.88
2022-09-24T01:21:02.312Z,99535.38
2022-09-24T01:22:12.460Z,99541.94
2022-09-24T01:23:48.384Z,99530.63
2022-09-24T01:25:07.334Z,99444.72
2022-09-24T01:26:29.632Z,99538.25
2022-09-24T01:27:57.327Z,99529.25
2022-09-24T01:29:37.714Z,99526.47
2022-09-24T01:30:42.475Z,99503.78
2022-09-24T01:32:05.827Z,99516.50
2022-09-24T01:33:15.369Z,99496.34
2022-09-24T01:34:26.875Z,99498.81
2022-09-24T01:35:44.832Z,99521.22
2022-09-24T01:36:48.024Z,99514.69
2022-09-24T01:37:55.421Z,99488.81
2022-09-24T01:38:59.970Z,99495.00
2022-09-24T01:40:06.880Z,99526.06
2022-09-24T01:41:12.002Z,99503.56
2022-09-24T01:42:16.948Z,99504.72
2022-09-24T01:43:22.885Z,99519.28
2022-09-24T01:44:27.737Z,99439.66
2022-09-24T01:45:32.123Z,99479.34
2022-09-24T01:46:39.500Z,99516.56
2022-09-24T01:47:41.918Z,99504.06
2022-09-24T01:48:43.705Z,99520.81
2022-09-24T01:49:45.985Z,99516.47
2022-09-24T01:51:13.474Z,99518.19
2022-09-24T01:52:20.084Z,99539.56
2022-09-24T01:53:30.239Z,99506.84
2022-09-24T01:54:37.060Z,99507.78
2022-09-24T01:55:45.336Z,99478.41
2022-09-24T01:57:08.114Z,99500.66
2022-09-24T01:58:17.006Z,99480.47
2022-09-24T01:59:32.225Z,99501.75
2022-09-24T02:00:34.123Z,99509.22
2022-09-24T02:02:07.822Z,99479.41
2022-09-24T02:03:15.385Z,99503.97
2022-09-24T02:04:21.344Z,99518.34
2022-09-24T02:05:39.177Z,99494.91
2022-09-24T02:06:53.314Z,99487.03
2022-09-24T02:08:37.034Z,99510.31
2022-09-24T02:09:41.465Z,99497.59
2022-09-24T02:10:51.352Z,99490.66
2022-09-24T02:11:55.611Z,99507.00
2022-09-24T02:13:03.051Z,99484.31
2022-09-24T02:14:14.456Z,99507.00
2022-09-24T02:15:30.198Z,99512.69
2022-09-24T02:16:38.018Z,99508.00
2022-09-24T02:17:43.761Z,99505.47
2022-09-24T02:18:48.397Z,99513.44
2022-09-24T02:19:50.475Z,99422.63
2022-09-24T02:20:53.856Z,99479.41
2022-09-24T02:21:55.542Z,99503.25
2022-09-24T02:22:59.853Z,99492.59
2022-09-24T02:24:32.400Z,99521.38
2022-09-24T02:25:50.812Z,99478.81
2022-09-24T02:26:52.634Z,99422.13
2022-09-24T02:27:56.797Z,99508.69
2022-09-24T02:28:59.155Z,99507.59
2022-09-24T02:30:01.264Z,99511.13
2022-09-24T02:31:08.454Z,99525.25
2022-09-24T02:32:14.514Z,99436.75
2022-09-24T02:33:35.537Z,99485.84
2022-09-24T02:34:42.335Z,99458.59
2022-09-24T02:35:48.067Z,99517.97
2022-09-24T02:36:54.648Z,99520.34
2022-09-24T02:37:56.399Z,99496.84
2022-09-24T02:38:59.992Z,99496.34
2022-09-24T02:40:03.861Z,99509.38
2022-09-24T02:41:08.377Z,99500.72
2022-09-24T02:42:13.719Z,99511.22
2022-09-24T02:43:15.301Z,99470.06
2022-09-24T02:44:17.834Z,99510.81
2022-09-24T02:45:19.375Z,99468.66
2022-09-24T02:46:21.073Z,99483.28
2022-09-24T02:47:22.686Z,99492.13
2022-09-24T02:48:24.365Z,99455.72
2022-09-24T02:49:26.178Z,99506.22
2022-09-24T02:50:27.697Z,99457.31
2022-09-24T02:51:30.301Z,99500.63
2022-09-24T02:52:34.783Z,99472.66
2022-09-24T02:53:41.934Z,99457.41
2022-09-24T02:54:44.829Z,99522.38
2022-09-24T02:55:49.427Z,99514.69
2022-09-24T02:56:51.884Z,99504.53
2022-09-24T02:57:53.834Z,99491.25
2022-09-24T02:58:55.831Z,99426.06
2022-09-24T03:00:00.268Z,99485.59
2022-09-24T03:01:01.859Z,99475.56
2022-09-24T03:02:03.780Z,99499.88
2022-09-24T03:03:05.618Z,99416.97
2022-09-24T03:04:07.318Z,99511.38
2022-09-24T03:05:09.397Z,99410.03
2022-09-24T03:06:12.851Z,99487.88
2022-09-24T03:07:15.585Z,99383.28
2022-09-24T03:08:21.581Z,99467.91
2022-09-24T03:09:23.620Z,99444.63
2022-09-24T03:10:26.238Z,99415.44
2022-09-24T03:11:28.938Z,99493.03
2022-09-24T03:12:39.034Z,99390.38
2022-09-24T03:13:40.815Z,99469.56
2022-09-24T03:14:42.431Z,99492.66
2022-09-24T03:15:46.189Z,99493.38
2022-09-24T03:16:50.107Z,99463.75
2022-09-24T03:17:51.931Z,99494.59
2022-09-24T03:18:53.525Z,99497.38
2022-09-24T03:19:55.150Z,99482.91
2022-09-24T03:20:58.532Z,99435.69
2022-09-24T03:22:00.053Z,99495.78
2022-09-24T03:23:02.046Z,99459.13
2022-09-24T03:24:04.268Z,99471.19
2022-09-24T03:25:06.086Z,99513.22
2022-09-24T03:26:11.133Z,99501.03
2022-09-24T03:27:12.778Z,99495.44
2022-09-24T03:28:14.287Z,99456.84
2022-09-24T03:29:15.852Z,99482.41
2022-09-24T03:30:36.271Z,99468.88
2022-09-24T03:31:37.951Z,99476.75
2022-09-24T03:32:40.632Z,99506.22
2022-09-24T03:33:47.468Z,99507.97
2022-09-24T03:34:52.060Z,99393.63
2022-09-24T03:36:27.114Z,99494.00
2022-09-24T03:37:28.649Z,99504.38
2022-09-24T03:38:31.002Z,99477.50
2022-09-24T03:39:32.702Z,99447.16
2022-09-24T03:40:34.348Z,99494.75
2022-09-24T03:41:36.021Z,99525.19
2022-09-24T03:42:37.620Z,99406.25
2022-09-24T03:43:39.575Z,99498.72
2022-09-24T03:44:41.204Z,99474.28
2022-09-24T03:45:42.990Z,99473.81
2022-09-24T03:46:48.532Z,99482.22
2022-09-24T03:47:50.234Z,99379.03
2022-09-24T03:48:54.550Z,99499.38
2022-09-24T03:49:56.243Z,99419.81
2022-09-24T03:51:02.611Z,99514.94
2022-09-24T03:52:06.998Z,99472.31
2022-09-24T03:53:09.114Z,99495.91
2022-09-24T03:54:11.777Z,99472.91
2022-09-24T03:55:13.777Z,99412.47
2022-09-24T03:56:15.994Z,99511.47
2022-09-24T03:57:20.576Z,99503.97
2022-09-24T03:58:22.735Z,99485.63
2022-09-24T03:59:24.447Z,99388.13
2022-09-24T04:00:29.973Z,99488.16
2022-09-24T04:01:35.841Z,99411.47
2022-09-24T04:02:37.474Z,99444.00
2022-09-24T04:03:40.529Z,99480.41
2022-09-24T04:04:44.746Z,99445.69
2022-09-24T04:05:46.338Z,99372.06
2022-09-24T04:06:50.515Z,99403.00
2022-09-24T04:07:53.090Z,99428.63
2022-09-24T04:08:59.686Z,99401.16
2022-09-24T04:10:01.541Z,99482.56
2022-09-24T04:11:06.589Z,99456.19
2022-09-24T04:12:09.338Z,99464.31
2022-09-24T04:13:13.733Z,99451.47
2022-09-24T04:14:15.335Z,99389.00
2022-09-24T04:15:18.080Z,99470.41
2022-09-24T04:16:19.853Z,99483.06
2022-09-24T04:17:21.618Z,99453.75
2022-09-24T04:18:23.299Z,99460.69
2022-09-24T04:19:27.997Z,99317.78
2022-09-24T04:20:31.254Z,99371.59
2022-09-24T04:21:35.832Z,99459.44
2022-09-24T04:22:37.392Z,99439.06
2022-09-24T04:23:42.036Z,99438.38
2022-09-24T04:24:43.664Z,99452.00
2022-09-24T04:25:45.248Z,99430.25
2022-09-24T04:26:48.174Z,99377.53
2022-09-24T04:28:04.544Z,99455.72
2022-09-24T04:29:08.039Z,99429.16
2022-09-24T04:30:14.681Z,99455.91
2022-09-24T04:31:16.408Z,99400.91
2022-09-24T04:32:18.299Z,99445.56
2022-09-24T04:33:19.800Z,99395.63
2022-09-24T04:34:21.595Z,99425.59
2022-09-24T04:35:24.225Z,99464.19
2022-09-24T04:36:28.234Z,99373.81
2022-09-24T04:37:39.502Z,99466.03
2022-09-24T04:38:41.069Z,99462.28
2022-09-24T04:39:42.586Z,99452.91
2022-09-24T04:40:45.370Z,99476.78
2022-09-24T04:41:48.012Z,99384.34
2022-09-24T04:42:49.678Z,99446.72
2022-09-24T04:43:51.893Z,99458.06
2022-09-24T04:44:56.156Z,99429.06
2022-09-24T04:45:59.534Z,99443.44
2022-09-24T04:47:02.990Z,99404.00
2022-09-24T04:48:11.385Z,99435.97
2022-09-24T04:49:14.328Z,99457.91
2022-09-24T04:50:15.972Z,99464.91
2022-09-24T04:51:19.482Z,99396.06
2022-09-24T04:52:26.778Z,99398.91
2022-09-24T04:53:28.368Z,99440.31
2022-09-24T04:54:30.087Z,99461.59
2022-09-24T04:55:33.232Z,99478.69
2022-09-24T04:56:34.801Z,99421.66
2022-09-24T04:57:41.403Z,99455.28
2022-09-24T04:58:47.283Z,99392.03
2022-09-24T04:59:48.764Z,99479.91
2022-09-24T05:00:51.195Z,99372.44
2022-09-24T05:01:55.507Z,99459.84
2022-09-24T05:02:59.179Z,99484.13
2022-09-24T05:04:01.619Z,99449.28
2022-09-24T05:05:03.310Z,99385.03
2022-09-24T05:06:05.492Z,99393.75
2022-09-24T05:07:07.081Z,99494.50
2022-09-24T05:08:10.244Z,99362.72
2022-09-24T05:09:12.718Z,99480.41
2022-09-24T05:10:14.890Z,99446.97
2022-09-24T05:11:16.660Z,99480.41
2022-09-24T05:12:20.665Z,99482.09
2022-09-24T05:13:22.831Z,99464.56
2022-09-24T05:14:24.919Z,99367.75
2022-09-24T05:15:29.612Z,99440.03
2022-09-24T05:16:31.770Z,99373.78
2022-09-24T05:17:39.660Z,99434.53
2022-09-24T05:18:41.408Z,99446.72
2022-09-24T05:19:45.996Z,99448.22
2022-09-24T05:20:47.721Z,99436.78
2022-09-24T05:21:50.368Z,99451.59
2022-09-24T05:22:51.994Z,99476.56
2022-09-24T05:23:53.580Z,99362.94
2022-09-24T05:24:55.136Z,99483.91
2022-09-24T05:26:15.556Z,99477.81
2022-09-24T05:27:17.301Z,99357.31
2022-09-24T05:28:21.797Z,99437.53
2022-09-24T05:29:23.465Z,99443.94
2022-09-24T05:30:28.212Z,99424.09
2022-09-24T05:31:32.466Z,99456.28
2022-09-24T05:32:34.198Z,99456.34
2022-09-24T05:33:36.282Z,99471.41
2022-09-24T05:34:38.124Z,99430.06
2022-09-24T05:35:39.755Z,99434.56
2022-09-24T05:36:43.349Z,99459.56
2022-09-24T05:37:47.075Z,99390.72
2022-09-24T05:38:48.597Z,99404.94
2022-09-24T05:39:50.278Z,99417.84
2022-09-24T05:40:52.023Z,99467.94
2022-09-24T05:41:54.140Z,99471.13
2022-09-24T05:43:02.715Z,99451.69
2022-09-24T05:44:10.112Z,99460.41
2022-09-24T05:45:12.330Z,99442.75
2022-09-24T05:46:13.990Z,99481.41
2022-09-24T05:47:18.123Z,99481.41
2022-09-24T05:48:22.908Z,99452.59
2022-09-24T05:49:25.304Z,99448.50
2022-09-24T05:50:27.764Z,99395.88
2022-09-24T05:51:29.548Z,99505.59
2022-09-24T05:52:31.567Z,99444.84
2022-09-24T05:53:33.992Z,99471.75
2022-09-24T05:54:35.647Z,99448.72
2022-09-24T05:55:37.290Z,99497.25
2022-09-24T05:56:41.678Z,99478.91
2022-09-24T05:57:43.970Z,99422.88
2022-09-24T05:58:53.174Z,99385.56
2022-09-24T05:59:54.780Z,99364.97
2022-09-24T06:00:59.897Z,99474.16
2022-09-24T06:02:01.652Z,99472.97
2022-09-24T06:03:10.800Z,99461.50
2022-09-24T06:04:12.816Z,99518.63
2022-09-24T06:05:16.692Z,99483.75
2022-09-24T06:06:20.670Z,99504.97
2022-09-24T06:07:22.347Z,99384.09
2022-09-24T06:08:23.945Z,99487.03
2022-09-24T06:09:25.476Z,99472.13
2022-09-24T06:10:28.444Z,99418.41
2022-09-24T06:11:40.639Z,99461.91
2022-09-24T06:12:43.087Z,99465.63
2022-09-24T06:13:44.671Z,99459.44
2022-09-24T06:14:50.545Z,99469.44
2022-09-24T06:15:52.324Z,99481.28
2022-09-24T06:16:54.085Z,99452.69
2022-09-24T06:17:56.055Z,99488.56
2022-09-24T06:18:57.654Z,99503.28
2022-09-24T06:19:59.357Z,99392.66
2022-09-24T06:21:05.523Z,99486.88
2022-09-24T06:22:07.165Z,99432.16
2022-09-24T06:23:08.975Z,99490.09
2022-09-24T06:24:11.294Z,99505.00
2022-09-24T06:25:13.061Z,99490.25
2022-09-24T06:26:15.028Z,99457.44
2022-09-24T06:27:16.813Z,99471.56
2022-09-24T06:28:18.371Z,99420.13
2022-09-24T06:29:20.001Z,99483.81
2022-09-24T06:30:24.579Z,99499.72
2022-09-24T06:31:28.124Z,99485.63
2022-09-24T06:32:32.794Z,99390.94
2022-09-24T06:33:34.326Z,99500.53
2022-09-24T06:34:35.940Z,99363.72
2022-09-24T06:35:39.827Z,99495.69
2022-09-24T06:36:41.557Z,99407.00
2022-09-24T06:37:43.385Z,99467.72
2022-09-24T06:38:45.523Z,99481.56
2022-09-24T06:39:47.162Z,99476.97
2022-09-24T06:40:48.943Z,99501.00
2022-09-24T06:41:51.483Z,99475.44
2022-09-24T06:42:53.978Z,99437.22
2022-09-24T06:43:56.041Z,99495.78
2022-09-24T06:44:57.602Z,99474.84
2022-09-24T06:46:00.881Z,99474.28
2022-09-24T06:47:02.699Z,99433.16
2022-09-24T06:48:05.993Z,99500.69
2022-09-24T06:49:11.082Z,99509.59
2022-09-24T06:50:12.846Z,99412.53
2022-09-24T06:51:14.817Z,99459.22
2022-09-24T06:52:16.712Z,99488.88
2022-09-24T06:53:18.813Z,99512.94
2022-09-24T06:54:20.953Z,99510.09
2022-09-24T06:55:23.173Z,99511.69
2022-09-24T06:56:24.874Z,99528.97
2022-09-24T06:57:28.951Z,99484.84
2022-09-24T06:58:30.849Z,99507.38
2022-09-24T06:59:35.389Z,99504.47
2022-09-24T07:00:38.940Z,99435.91
2022-09-24T07:01:43.531Z,99469.78
2022-09-24T07:02:51.920Z,99505.41
2022-09-24T07:03:53.795Z,99496.16
2022-09-24T07:04:55.408Z,99510.00
2022-09-24T07:06:00.734Z,99481.94
2022-09-24T07:07:23.787Z,99448.28
2022-09-24T07:08:25.532Z,99500.72
2022-09-24T07:09:27.343Z,99475.38
2022-09-24T07:10:29.015Z,99517.25
2022-09-24T07:11:30.827Z,99502.97
2022-09-24T07:12:34.770Z,99458.66
2022-09-24T07:13:36.388Z,99499.81
2022-09-24T07:14:38.176Z,99469.75
2022-09-24T07:15:41.316Z,99432.09
2022-09-24T07:16:43.064Z,99420.56
2022-09-24T07:17:44.767Z,99478.69
2022-09-24T07:18:46.304Z,99492.47
2022-09-24T07:19:48.021Z,99412.09
2022-09-24T07:20:54.121Z,99520.81
2022-09-24T07:21:55.977Z,99483.47
2022-09-24T07:22:57.672Z,99457.72
2022-09-24T07:23:59.257Z,99541.97
2022-09-24T07:25:01.161Z,99518.97
2022-09-24T07:26:02.793Z,99502.22
2022-09-24T07:27:05.563Z,99517.28
2022-09-24T07:28:10.055Z,99514.91
2022-09-24T07:29:11.951Z,99423.00
2022-09-24T07:30:13.880Z,99501.59
2022-09-24T07:31:18.590Z,99520.75
2022-09-24T07:32:20.295Z,99453.69
2022-09-24T07:33:21.808Z,99508.69
2022-09-24T07:34:23.430Z,99490.13
2022-09-24T07:35:26.489Z,99529.16
2022-09-24T07:36:31.063Z,99503.25
2022-09-24T07:37:33.211Z,99529.09
2022-09-24T07:38:36.506Z,99519.16
2022-09-24T07:39:38.223Z,99491.38
2022-09-24T07:40:40.406Z,99507.13
2022-09-24T07:41:42.630Z,99521.59
2022-09-24T07:42:48.530Z,99432.19
2022-09-24T07:43:50.310Z,99520.53
2022-09-24T07:44:52.236Z,99518.28
2022-09-24T07:45:55.750Z,99520.81
2022-09-24T07:46:58.048Z,99496.78
2022-09-24T07:48:02.041Z,99537.16
2022-09-24T07:49:03.799Z,99424.97
2022-09-24T07:50:06.121Z,99556.53
2022-09-24T07:51:11.392Z,99514.00
2022-09-24T07:52:13.213Z,99508.06
2022-09-24T07:53:16.870Z,99468.44
2022-09-24T07:54:18.499Z,99432.09
2022-09-24T07:55:20.433Z,99510.88
2022-09-24T07:56:23.125Z,99521.66
2022-09-24T07:57:27.467Z,99540.09
2022-09-24T07:58:29.181Z,99529.28
2022-09-24T07:59:33.550Z,99491.44
2022-09-24T08:00:35.402Z,99538.66
2022-09-24T08:01:37.625Z,99459.41
2022-09-24T08:02:39.680Z,99556.41
2022-09-24T08:03:41.352Z,99511.72
2022-09-24T08:04:44.312Z,99512.09
2022-09-24T08:05:45.979Z,99537.00
2022-09-24T08:06:48.554Z,99467.31
2022-09-24T08:07:54.660Z,99485.25
2022-09-24T08:08:57.152Z,99454.25
2022-09-24T08:09:59.659Z,99485.53
2022-09-24T08:11:09.061Z,99524.13
2022-09-24T08:12:12.420Z,99514.16
2022-09-24T08:13:16.827Z,99526.94
2022-09-24T08:14:18.433Z,99520.53
2022-09-24T08:15:20.209Z,99521.22
2022-09-24T08:16:21.925Z,99452.66
2022-09-24T08:17:23.733Z,99477.25
2022-09-24T08:18:26.015Z,99529.00
2022-09-24T08:19:28.232Z,99529.16
2022-09-24T08:20:32.173Z,99526.81
2022-09-24T08:21:34.133Z,99521.22
2022-09-24T08:22:36.048Z,99513.66
2022-09-24T08:23:40.053Z,99542.19
2022-09-24T08:24:42.043Z,99488.13
2022-09-24T08:25:43.880Z,99477.09
2022-09-24T08:26:45.451Z,99545.78
2022-09-24T08:27:47.245Z,99536.44
2022-09-24T08:28:50.133Z,99443.22
2022-09-24T08:29:52.389Z,99524.31
2022-09-24T08:31:01.399Z,99525.28
2022-09-24T08:32:04.282Z,99512.16
2022-09-24T08:33:07.484Z,99517.94
2022-09-24T08:34:09.446Z,99515.28
2022-09-24T08:35:15.810Z,99478.69
2022-09-24T08:36:18.950Z,99492.59
2022-09-24T08:37:20.558Z,99539.66
2022-09-24T08:38:22.387Z,99512.03
2022-09-24T08:39:24.037Z,99460.31
2022-09-24T08:40:30.668Z,99527.91
2022-09-24T08:42:02.849Z,99529.75
2022-09-24T08:43:10.669Z,99529.22
2022-09-24T08:44:39.779Z,99528.31
2022-09-24T08:46:07.418Z,99523.59
2022-09-24T08:47:25.145Z,99541.81
2022-09-24T08:48:35.355Z,99550.16
2022-09-24T08:49:49.878Z,99557.47
2022-09-24T08:50:58.039Z,99542.91
2022-09-24T08:52:07.755Z,99549.34
2022-09-24T08:53:54.778Z,99549.78
2022-09-24T08:55:02.436Z,99540.81
2022-09-24T08:56:06.223Z,99534.25
2022-09-24T08:57:14.449Z,99570.34
2022-09-24T08:58:28.771Z,99544.09
2022-09-24T08:59:33.941Z,99525.09
2022-09-24T09:00:43.911Z,99518.97
2022-09-24T09:02:11.260Z,99529.41
2022-09-24T09:03:31.017Z,99526.03
2022-09-24T09:05:10.360Z,99545.41
2022-09-24T09:06:50.395Z,99547.84
2022-09-24T09:08:02.827Z,99544.97
2022-09-24T09:09:21.691Z,99543.59
2022-09-24T09:10:31.554Z,99546.91
2022-09-24T09:11:36.832Z,99555.66
2022-09-24T09:12:46.233Z,99530.94
2022-09-24T09:14:23.587Z,99553.59
2022-09-24T09:15:31.142Z,99553.53
2022-09-24T09:16:55.740Z,99554.22
2022-09-24T09:18:26.174Z,99508.03
2022-09-24T09:19:33.874Z,99524.50
2022-09-24T09:20:41.109Z,99552.13
2022-09-24T09:21:47.036Z,99533.59
2022-09-24T09:22:53.856Z,99520.66
2022-09-24T09:23:57.212Z,99512.31
2022-09-24T09:25:10.538Z,99558.84
2022-09-24T09:26:13.651Z,99546.84
2022-09-24T09:27:17.226Z,99506.97
2022-09-24T09:28:21.973Z,99500.81
2022-09-24T09:29:26.127Z,99584.59
2022-09-24T09:30:33.997Z,99558.75
2022-09-24T09:31:56.168Z,99558.28
2022-09-24T09:32:58.166Z,99554.94
2022-09-24T09:34:01.404Z,99553.22
2022-09-24T09:35:21.213Z,99515.84
2022-09-24T09:36:45.711Z,99552.47
2022-09-24T09:37:47.243Z,99557.47
2022-09-24T09:39:07.664Z,99554.72
2022-09-24T09:40:46.852Z,99558.94
2022-09-24T09:42:03.874Z,99547.81
2022-09-24T09:43:13.206Z,99452.75
2022-09-24T09:44:25.695Z,99545.75
2022-09-24T09:46:09.677Z,99549.13
2022-09-24T09:47:26.482Z,99549.13
2022-09-24T09:48:39.325Z,99544.84
2022-09-24T09:49:43.624Z,99519.56
2022-09-24T09:50:59.601Z,99547.72
2022-09-24T09:52:10.967Z,99529.16
2022-09-24T09:53:25.607Z,99540.50
2022-09-24T09:54:38.150Z,99540.50
2022-09-24T09:55:42.666Z,99560.28
2022-09-24T09:56:50.551Z,99505.59
2022-09-24T09:58:13.407Z,99540.41
2022-09-24T09:59:18.714Z,99548.81
2022-09-24T10:00:33.848Z,99540.28
2022-09-24T10:01:37.786Z,99535.81
2022-09-24T10:02:43.559Z,99519.44
2022-09-24T10:03:46.250Z,99539.34
2022-09-24T10:04:51.973Z,99489.09
2022-09-24T10:05:59.017Z,99534.81
2022-09-24T10:07:16.025Z,99547.31
2022-09-24T10:08:22.349Z,99513.91
2022-09-24T10:09:23.940Z,99533.00
2022-09-24T10:10:28.599Z,99548.31
2022-09-24T10:11:33.497Z,99494.03
2022-09-24T10:12:35.017Z,99562.25
2022-09-24T10:13:36.839Z,99553.84
2022-09-24T10:14:38.597Z,99550.69
2022-09-24T10:15:53.927Z,99515.56
2022-09-24T10:16:56.533Z,99539.84
2022-09-24T10:18:00.307Z,99551.94
2022-09-24T10:19:02.150Z,99504.78
2022-09-24T10:20:27.547Z,99544.41
2022-09-24T10:21:34.795Z,99528.22
2022-09-24T10:22:38.605Z,99553.00
2022-09-24T10:23:45.028Z,99540.75
2022-09-24T10:24:47.353Z,99526.53
2022-09-24T10:25:55.345Z,99533.56
2022-09-24T10:26:57.745Z,99533.94
2022-09-24T10:28:21.195Z,99536.03
2022-09-24T10:29:43.319Z,99526.41
2022-09-24T10:31:00.405Z,99548.09
2022-09-24T10:32:05.419Z,99550.13
2022-09-24T10:33:09.834Z,99544.94
2022-09-24T10:34:25.077Z,99543.56
2022-09-24T10:35:28.496Z,99574.47
2022-09-24T10:36:35.152Z,99545.50
2022-09-24T10:37:37.107Z,99510.63
2022-09-24T10:38:39.311Z,99523.84
2022-09-24T10:39:44.316Z,99545.53
2022-09-24T10:40:47.570Z,99520.03
2022-09-24T10:41:57.458Z,99520.75
2022-09-24T10:43:05.254Z,99523.31
2022-09-24T10:44:11.737Z,99513.38
2022-09-24T10:45:15.846Z,99545.41
2022-09-24T10:46:49.998Z,99535.91
2022-09-24T10:48:10.892Z,99521.25
2022-09-24T10:49:31.323Z,99539.56
2022-09-24T10:50:44.121Z,99528.69
2022-09-24T10:52:12.903Z,99496.53
2022-09-24T10:53:25.466Z,99520.53
2022-09-24T10:54:56.000Z,99533.00
2022-09-24T10:56:09.581Z,99501.47
2022-09-24T10:57:39.658Z,99528.31
2022-09-24T10:59:18.200Z,99529.00
2022-09-24T11:00:23.872Z,99522.84
2022-09-24T11:01:40.652Z,99521.47
2022-09-24T11:03:16.165Z,99515.72
2022-09-24T11:04:46.029Z,99518.91
2022-09-24T11:05:59.708Z,99524.78
2022-09-24T11:07:13.628Z,99523.47
2022-09-24T11:08:22.938Z,99526.53
2022-09-24T11:09:44.254Z,99487.44
2022-09-24T11:11:05.809Z,99510.63
2022-09-24T11:12:15.628Z,99523.25
2022-09-24T11:13:33.911Z,99523.34
2022-09-24T11:15:07.753Z,99503.47
2022-09-24T11:16:42.416Z,99511.28
2022-09-24T11:18:23.473Z,99514.88
2022-09-24T11:20:01.097Z,99489.22
2022-09-24T11:21:13.222Z,99511.78
2022-09-24T11:22:20.404Z,99505.16
2022-09-24T11:23:57.275Z,99437.16
2022-09-24T11:25:04.663Z,99509.31
2022-09-24T11:26:40.489Z,99507.19
2022-09-24T11:27:57.362Z,99508.31
2022-09-24T11:29:31.095Z,99448.38
2022-09-24T11:30:35.351Z,99503.88
2022-09-24T11:32:05.297Z,99503.31
2022-09-24T11:33:12.942Z,99500.94
2022-09-24T11:34:37.814Z,99500.81
2022-09-24T11:36:26.192Z,99505.13
2022-09-24T11:37:27.764Z,99503.72
2022-09-24T11:38:52.317Z,99472.34
2022-09-24T11:40:18.781Z,99496.19
2022-09-24T11:41:23.382Z,99493.91
2022-09-24T11:42:31.854Z,99482.41
2022-09-24T11:44:04.924Z,99494.53
2022-09-24T11:45:42.891Z,99492.41
2022-09-24T11:47:26.479Z,99492.00
2022-09-24T11:48:45.977Z,99493.66
2022-09-24T11:50:13.975Z,99495.19
2022-09-24T11:51:26.293Z,99490.81
2022-09-24T11:52:52.751Z,99491.91
2022-09-24T11:54:01.731Z,99480.44
2022-09-24T11:55:24.357Z,99474.56
2022-09-24T11:56:37.567Z,99468.31
2022-09-24T11:58:13.283Z,99475.72
2022-09-24T11:59:42.103Z,99454.69
2022-09-24T12:00:51.256Z,99486.69
2022-09-24T12:02:06.033Z,99455.91
2022-09-24T12:03:45.938Z,99478.69
2022-09-24T12:05:22.767Z,99479.78
2022-09-24T12:06:52.453Z,99468.81
2022-09-24T12:08:00.299Z,99438.50
2022-09-24T12:09:17.443Z,99473.22
2022-09-24T12:10:43.527Z,99477.41
2022-09-24T12:11:55.126Z,99461.75
2022-09-24T12:13:04.450Z,99464.00
2022-09-24T12:14:45.894Z,99464.25
2022-09-24T12:16:05.383Z,99469.84
2022-09-24T12:17:15.740Z,99437.66
2022-09-24T12:18:23.610Z,99466.59
2022-09-24T12:19:42.224Z,99461.38
2022-09-24T12:20:58.672Z,99442.03
2022-09-24T12:22:04.102Z,99401.47
2022-09-24T12:23:12.311Z,99466.13
2022-09-24T12:24:20.813Z,99423.00
2022-09-24T12:25:22.449Z,99427.78
2022-09-24T12:26:29.586Z,99468.09
2022-09-24T12:27:35.460Z,99460.13
2022-09-24T12:29:07.678Z,99458.47
2022-09-24T12:30:48.628Z,99442.78
2022-09-24T12:32:40.033Z,99458.59
2022-09-24T12:33:52.861Z,99460.31
2022-09-24T12:35:24.058Z,99455.69
2022-09-24T12:36:43.215Z,99451.66
2022-09-24T12:37:47.845Z,99454.69
2022-09-24T12:39:01.330Z,99452.69
2022-09-24T12:40:10.276Z,99446.97
2022-09-24T12:41:11.983Z,99447.25
2022-09-24T12:42:15.103Z,99426.00
2022-09-24T12:43:39.033Z,99407.41
2022-09-24T12:44:53.325Z,99447.59
2022-09-24T12:45:59.684Z,99379.97
2022-09-24T12:47:01.541Z,99354.25
2022-09-24T12:48:03.343Z,99382.78
2022-09-24T12:49:36.490Z,99434.72
2022-09-24T12:50:39.687Z,99431.63
2022-09-24T12:51:48.969Z,99370.72
2022-09-24T12:52:50.887Z,99464.09
2022-09-24T12:54:05.843Z,99439.66
2022-09-24T12:55:29.186Z,99438.59
2022-09-24T12:56:35.129Z,99405.66
2022-09-24T12:57:49.147Z,99437.16
2022-09-24T12:58:51.934Z,99441.03
2022-09-24T12:59:58.828Z,99366.81
2022-09-24T13:01:14.875Z,99418.34
2022-09-24T13:02:21.027Z,99372.59
2022-09-24T13:03:46.913Z,99430.94
2022-09-24T13:05:02.032Z,99433.03
2022-09-24T13:06:19.062Z,99438.63
2022-09-24T13:07:29.936Z,99439.47
2022-09-24T13:08:40.086Z,99413.38
2022-09-24T13:09:46.079Z,99390.38
2022-09-24T13:11:29.674Z,99405.63
2022-09-24T13:12:33.188Z,99430.09
2022-09-24T13:13:44.876Z,99410.75
2022-09-24T13:14:54.565Z,99390.81
2022-09-24T13:16:01.666Z,99456.31
2022-09-24T13:17:06.887Z,99367.22
2022-09-24T13:18:13.029Z,99427.34
2022-09-24T13:19:49.783Z,99432.72
2022-09-24T13:21:05.649Z,99355.50
2022-09-24T13:22:32.063Z,99426.88